Aspinwall, Pennsylvania
Current Conditions -  °F | °C
As of 12:16 PM on Tuesday 21 Oct 2014 (Local Time) from KAGC Reporting Station
Overcast Overcast  
Wind Chill: 53°   Ceiling: 2100
Heat Index: 53°   Visibility: 10mi
Dew Point: 46°   Wind: 7mph
Humidity: 77%   Direction: 330°NNW
Pressure: 29.88"   Gusts: NA
Location:  40.5049°N, 79.9132°W
Report Text: KAGC 211616Z 33006KT 10SM SCT016 BKN021 OVC060 12/08 A2988 RMK AO2 T01170078
Loading
Personal Weather Stations






























Interactive Weather Map
Tropical Storm Tracking
New forecast layout! Learn more

10-Day Weather Forecast

Advertisements
Track Severe Weather on mobile